sensor_id;sensor_type;location;lat;lon;timestamp;P1;durP1;ratioP1;P2;durP2;ratioP2
72635;SDS011;60679;48.888;15.544;2024-02-16T00:00:17;6.22;;;3.33;;
72635;SDS011;60679;48.888;15.544;2024-02-16T00:02:43;6.20;;;2.92;;
72635;SDS011;60679;48.888;15.544;2024-02-16T00:05:11;6.18;;;3.00;;
72635;SDS011;60679;48.888;15.544;2024-02-16T00:07:37;8.23;;;3.78;;
72635;SDS011;60679;48.888;15.544;2024-02-16T00:10:03;12.93;;;4.72;;
72635;SDS011;60679;48.888;15.544;2024-02-16T00:12:30;6.27;;;2.60;;
72635;SDS011;60679;48.888;15.544;2024-02-16T00:14:57;10.60;;;4.50;;
72635;SDS011;60679;48.888;15.544;2024-02-16T00:17:22;11.75;;;4.80;;
72635;SDS011;60679;48.888;15.544;2024-02-16T00:19:51;8.85;;;4.78;;
72635;SDS011;60679;48.888;15.544;2024-02-16T00:22:20;7.37;;;2.73;;
72635;SDS011;60679;48.888;15.544;2024-02-16T00:24:46;7.55;;;3.13;;
72635;SDS011;60679;48.888;15.544;2024-02-16T00:27:13;8.20;;;3.70;;
72635;SDS011;60679;48.888;15.544;2024-02-16T00:29:39;8.35;;;3.92;;
72635;SDS011;60679;48.888;15.544;2024-02-16T00:32:04;11.77;;;4.70;;
72635;SDS011;60679;48.888;15.544;2024-02-16T00:34:31;9.15;;;3.83;;
72635;SDS011;60679;48.888;15.544;2024-02-16T00:36:57;5.80;;;1.70;;
72635;SDS011;60679;48.888;15.544;2024-02-16T00:39:23;6.22;;;2.55;;
72635;SDS011;60679;48.888;15.544;2024-02-16T00:41:49;13.90;;;6.03;;
72635;SDS011;60679;48.888;15.544;2024-02-16T00:44:15;5.55;;;2.70;;
72635;SDS011;60679;48.888;15.544;2024-02-16T00:46:40;14.43;;;4.63;;
72635;SDS011;60679;48.888;15.544;2024-02-16T00:49:06;8.73;;;3.17;;
72635;SDS011;60679;48.888;15.544;2024-02-16T00:51:32;5.43;;;2.45;;
72635;SDS011;60679;48.888;15.544;2024-02-16T00:53:58;5.97;;;3.00;;
72635;SDS011;60679;48.888;15.544;2024-02-16T00:56:23;7.55;;;2.70;;
72635;SDS011;60679;48.888;15.544;2024-02-16T00:58:48;6.27;;;2.43;;
72635;SDS011;60679;48.888;15.544;2024-02-16T01:01:14;8.90;;;3.77;;
72635;SDS011;60679;48.888;15.544;2024-02-16T01:03:40;10.30;;;3.85;;
72635;SDS011;60679;48.888;15.544;2024-02-16T01:06:05;7.17;;;2.70;;
72635;SDS011;60679;48.888;15.544;2024-02-16T01:08:31;10.55;;;3.42;;
72635;SDS011;60679;48.888;15.544;2024-02-16T01:10:57;6.57;;;2.37;;
72635;SDS011;60679;48.888;15.544;2024-02-16T01:13:23;7.25;;;3.25;;
72635;SDS011;60679;48.888;15.544;2024-02-16T01:15:49;7.82;;;3.38;;
72635;SDS011;60679;48.888;15.544;2024-02-16T01:18:14;8.10;;;3.47;;
72635;SDS011;60679;48.888;15.544;2024-02-16T01:20:40;5.22;;;2.35;;
72635;SDS011;60679;48.888;15.544;2024-02-16T01:23:06;8.18;;;4.20;;
72635;SDS011;60679;48.888;15.544;2024-02-16T01:25:31;9.40;;;4.47;;
72635;SDS011;60679;48.888;15.544;2024-02-16T01:27:57;8.50;;;4.83;;
72635;SDS011;60679;48.888;15.544;2024-02-16T01:30:23;6.55;;;2.75;;
72635;SDS011;60679;48.888;15.544;2024-02-16T01:32:49;8.23;;;4.65;;
72635;SDS011;60679;48.888;15.544;2024-02-16T01:35:14;12.00;;;4.57;;
72635;SDS011;60679;48.888;15.544;2024-02-16T01:37:43;7.93;;;4.03;;
72635;SDS011;60679;48.888;15.544;2024-02-16T01:40:09;8.18;;;3.45;;
72635;SDS011;60679;48.888;15.544;2024-02-16T01:42:42;6.32;;;2.72;;
72635;SDS011;60679;48.888;15.544;2024-02-16T01:45:08;9.48;;;4.13;;
72635;SDS011;60679;48.888;15.544;2024-02-16T01:47:35;9.68;;;3.75;;
72635;SDS011;60679;48.888;15.544;2024-02-16T01:50:02;16.20;;;5.15;;
72635;SDS011;60679;48.888;15.544;2024-02-16T01:52:28;6.25;;;3.03;;
72635;SDS011;60679;48.888;15.544;2024-02-16T01:54:56;9.80;;;4.90;;
72635;SDS011;60679;48.888;15.544;2024-02-16T01:57:23;8.93;;;3.13;;
72635;SDS011;60679;48.888;15.544;2024-02-16T01:59:49;9.23;;;3.50;;
72635;SDS011;60679;48.888;15.544;2024-02-16T02:02:15;8.05;;;3.85;;
72635;SDS011;60679;48.888;15.544;2024-02-16T02:04:40;11.23;;;4.20;;
72635;SDS011;60679;48.888;15.544;2024-02-16T02:07:13;10.32;;;4.50;;
72635;SDS011;60679;48.888;15.544;2024-02-16T02:09:40;7.47;;;2.67;;
72635;SDS011;60679;48.888;15.544;2024-02-16T02:12:05;12.40;;;4.63;;
72635;SDS011;60679;48.888;15.544;2024-02-16T02:14:31;9.70;;;3.85;;
72635;SDS011;60679;48.888;15.544;2024-02-16T02:16:57;7.73;;;2.97;;
72635;SDS011;60679;48.888;15.544;2024-02-16T02:19:23;8.35;;;3.90;;
72635;SDS011;60679;48.888;15.544;2024-02-16T02:21:48;8.87;;;3.27;;
72635;SDS011;60679;48.888;15.544;2024-02-16T02:24:15;11.40;;;4.55;;
72635;SDS011;60679;48.888;15.544;2024-02-16T02:26:41;9.48;;;3.38;;
72635;SDS011;60679;48.888;15.544;2024-02-16T02:29:07;7.70;;;3.47;;
72635;SDS011;60679;48.888;15.544;2024-02-16T02:31:32;8.07;;;3.00;;
72635;SDS011;60679;48.888;15.544;2024-02-16T02:33:57;9.37;;;3.33;;
72635;SDS011;60679;48.888;15.544;2024-02-16T02:36:23;9.68;;;3.97;;
72635;SDS011;60679;48.888;15.544;2024-02-16T02:38:48;14.97;;;3.67;;
72635;SDS011;60679;48.888;15.544;2024-02-16T02:41:15;10.27;;;4.53;;
72635;SDS011;60679;48.888;15.544;2024-02-16T02:43:42;4.97;;;2.53;;
72635;SDS011;60679;48.888;15.544;2024-02-16T02:46:08;10.68;;;4.50;;
72635;SDS011;60679;48.888;15.544;2024-02-16T02:48:33;8.25;;;4.38;;
72635;SDS011;60679;48.888;15.544;2024-02-16T02:50:59;11.20;;;4.83;;
72635;SDS011;60679;48.888;15.544;2024-02-16T02:53:27;6.70;;;3.33;;
72635;SDS011;60679;48.888;15.544;2024-02-16T02:55:53;10.75;;;5.28;;
72635;SDS011;60679;48.888;15.544;2024-02-16T02:58:19;7.53;;;4.20;;
72635;SDS011;60679;48.888;15.544;2024-02-16T03:00:44;8.20;;;3.13;;
72635;SDS011;60679;48.888;15.544;2024-02-16T03:03:10;6.73;;;3.43;;
72635;SDS011;60679;48.888;15.544;2024-02-16T03:05:35;9.57;;;3.13;;
72635;SDS011;60679;48.888;15.544;2024-02-16T03:08:01;9.20;;;3.58;;
72635;SDS011;60679;48.888;15.544;2024-02-16T03:10:27;8.07;;;4.73;;
72635;SDS011;60679;48.888;15.544;2024-02-16T03:12:56;11.23;;;4.53;;
72635;SDS011;60679;48.888;15.544;2024-02-16T03:15:21;9.20;;;5.10;;
72635;SDS011;60679;48.888;15.544;2024-02-16T03:17:47;8.20;;;3.93;;
72635;SDS011;60679;48.888;15.544;2024-02-16T03:20:13;6.63;;;3.87;;
72635;SDS011;60679;48.888;15.544;2024-02-16T03:22:38;14.85;;;4.15;;
72635;SDS011;60679;48.888;15.544;2024-02-16T03:25:04;8.90;;;4.78;;
72635;SDS011;60679;48.888;15.544;2024-02-16T03:27:30;5.63;;;3.40;;
72635;SDS011;60679;48.888;15.544;2024-02-16T03:29:55;8.00;;;3.88;;
72635;SDS011;60679;48.888;15.544;2024-02-16T03:32:21;10.97;;;4.30;;
72635;SDS011;60679;48.888;15.544;2024-02-16T03:34:46;17.67;;;5.23;;
72635;SDS011;60679;48.888;15.544;2024-02-16T03:37:12;6.75;;;3.17;;
72635;SDS011;60679;48.888;15.544;2024-02-16T03:39:37;7.00;;;3.27;;
72635;SDS011;60679;48.888;15.544;2024-02-16T03:42:03;6.33;;;3.70;;
72635;SDS011;60679;48.888;15.544;2024-02-16T03:44:28;9.68;;;3.28;;
72635;SDS011;60679;48.888;15.544;2024-02-16T03:46:54;7.03;;;3.63;;
72635;SDS011;60679;48.888;15.544;2024-02-16T03:49:19;11.00;;;4.27;;
72635;SDS011;60679;48.888;15.544;2024-02-16T03:51:45;7.77;;;3.90;;
72635;SDS011;60679;48.888;15.544;2024-02-16T03:54:10;8.07;;;2.80;;
72635;SDS011;60679;48.888;15.544;2024-02-16T03:56:36;6.23;;;2.97;;
72635;SDS011;60679;48.888;15.544;2024-02-16T03:59:01;6.10;;;3.87;;
72635;SDS011;60679;48.888;15.544;2024-02-16T04:01:29;10.45;;;4.05;;
72635;SDS011;60679;48.888;15.544;2024-02-16T04:03:55;7.65;;;3.63;;
72635;SDS011;60679;48.888;15.544;2024-02-16T04:06:21;6.33;;;3.63;;
72635;SDS011;60679;48.888;15.544;2024-02-16T04:08:46;8.68;;;4.05;;
72635;SDS011;60679;48.888;15.544;2024-02-16T04:11:13;6.33;;;3.43;;
72635;SDS011;60679;48.888;15.544;2024-02-16T04:13:40;6.25;;;3.25;;
72635;SDS011;60679;48.888;15.544;2024-02-16T04:16:06;9.85;;;4.32;;
72635;SDS011;60679;48.888;15.544;2024-02-16T04:18:31;11.43;;;5.47;;
72635;SDS011;60679;48.888;15.544;2024-02-16T04:20:57;9.25;;;4.13;;
72635;SDS011;60679;48.888;15.544;2024-02-16T04:23:22;10.93;;;4.03;;
72635;SDS011;60679;48.888;15.544;2024-02-16T04:25:48;12.00;;;4.40;;
72635;SDS011;60679;48.888;15.544;2024-02-16T04:28:13;6.53;;;2.95;;
72635;SDS011;60679;48.888;15.544;2024-02-16T04:30:39;5.70;;;2.73;;
72635;SDS011;60679;48.888;15.544;2024-02-16T04:33:05;8.67;;;3.70;;
72635;SDS011;60679;48.888;15.544;2024-02-16T04:35:30;6.18;;;3.03;;
72635;SDS011;60679;48.888;15.544;2024-02-16T04:37:56;9.55;;;4.18;;
72635;SDS011;60679;48.888;15.544;2024-02-16T04:40:21;9.47;;;3.70;;
72635;SDS011;60679;48.888;15.544;2024-02-16T04:42:47;6.13;;;2.90;;
72635;SDS011;60679;48.888;15.544;2024-02-16T04:45:13;6.00;;;2.30;;
72635;SDS011;60679;48.888;15.544;2024-02-16T04:47:38;7.57;;;4.25;;
72635;SDS011;60679;48.888;15.544;2024-02-16T04:50:05;10.33;;;4.10;;
72635;SDS011;60679;48.888;15.544;2024-02-16T04:52:37;8.70;;;3.78;;
72635;SDS011;60679;48.888;15.544;2024-02-16T04:55:06;6.10;;;2.85;;
72635;SDS011;60679;48.888;15.544;2024-02-16T04:57:34;5.07;;;1.80;;
72635;SDS011;60679;48.888;15.544;2024-02-16T05:00:00;6.03;;;2.90;;
72635;SDS011;60679;48.888;15.544;2024-02-16T05:02:25;11.77;;;4.07;;
72635;SDS011;60679;48.888;15.544;2024-02-16T05:04:50;11.90;;;4.45;;
72635;SDS011;60679;48.888;15.544;2024-02-16T05:07:16;10.20;;;3.77;;
72635;SDS011;60679;48.888;15.544;2024-02-16T05:09:41;9.23;;;4.23;;
72635;SDS011;60679;48.888;15.544;2024-02-16T05:12:08;10.82;;;4.70;;
72635;SDS011;60679;48.888;15.544;2024-02-16T05:14:34;6.93;;;2.87;;
72635;SDS011;60679;48.888;15.544;2024-02-16T05:17:00;19.80;;;5.03;;
72635;SDS011;60679;48.888;15.544;2024-02-16T05:19:26;7.87;;;4.33;;
72635;SDS011;60679;48.888;15.544;2024-02-16T05:21:51;5.90;;;2.83;;
72635;SDS011;60679;48.888;15.544;2024-02-16T05:24:16;9.93;;;4.57;;
72635;SDS011;60679;48.888;15.544;2024-02-16T05:26:42;9.57;;;4.83;;
72635;SDS011;60679;48.888;15.544;2024-02-16T05:29:08;16.83;;;4.90;;
72635;SDS011;60679;48.888;15.544;2024-02-16T05:31:34;10.27;;;4.07;;
72635;SDS011;60679;48.888;15.544;2024-02-16T05:33:59;9.13;;;3.65;;
72635;SDS011;60679;48.888;15.544;2024-02-16T05:36:25;8.27;;;3.10;;
72635;SDS011;60679;48.888;15.544;2024-02-16T05:38:52;6.78;;;3.42;;
72635;SDS011;60679;48.888;15.544;2024-02-16T05:41:20;12.77;;;4.70;;
72635;SDS011;60679;48.888;15.544;2024-02-16T05:43:46;12.27;;;5.22;;
72635;SDS011;60679;48.888;15.544;2024-02-16T05:46:14;5.72;;;3.47;;
72635;SDS011;60679;48.888;15.544;2024-02-16T05:48:40;9.70;;;4.60;;
72635;SDS011;60679;48.888;15.544;2024-02-16T05:51:06;7.97;;;3.65;;
72635;SDS011;60679;48.888;15.544;2024-02-16T05:53:32;20.90;;;10.20;;
72635;SDS011;60679;48.888;15.544;2024-02-16T05:55:58;37.35;;;21.60;;
72635;SDS011;60679;48.888;15.544;2024-02-16T05:58:25;9.10;;;4.03;;
72635;SDS011;60679;48.888;15.544;2024-02-16T06:00:50;30.27;;;16.20;;
72635;SDS011;60679;48.888;15.544;2024-02-16T06:03:16;9.52;;;4.88;;
72635;SDS011;60679;48.888;15.544;2024-02-16T06:05:42;11.82;;;4.20;;
72635;SDS011;60679;48.888;15.544;2024-02-16T06:08:11;9.65;;;3.85;;
72635;SDS011;60679;48.888;15.544;2024-02-16T06:10:37;11.20;;;4.93;;
72635;SDS011;60679;48.888;15.544;2024-02-16T06:13:02;9.87;;;5.67;;
72635;SDS011;60679;48.888;15.544;2024-02-16T06:15:28;11.48;;;4.90;;
72635;SDS011;60679;48.888;15.544;2024-02-16T06:17:53;12.97;;;4.43;;
72635;SDS011;60679;48.888;15.544;2024-02-16T06:20:19;8.52;;;4.70;;
72635;SDS011;60679;48.888;15.544;2024-02-16T06:22:45;7.67;;;4.53;;
72635;SDS011;60679;48.888;15.544;2024-02-16T06:25:10;83.47;;;42.80;;
72635;SDS011;60679;48.888;15.544;2024-02-16T06:27:36;57.13;;;27.60;;
72635;SDS011;60679;48.888;15.544;2024-02-16T06:30:04;36.10;;;20.50;;
72635;SDS011;60679;48.888;15.544;2024-02-16T06:32:32;58.85;;;29.48;;
72635;SDS011;60679;48.888;15.544;2024-02-16T06:34:57;32.07;;;14.87;;
72635;SDS011;60679;48.888;15.544;2024-02-16T06:37:23;31.33;;;14.53;;
72635;SDS011;60679;48.888;15.544;2024-02-16T06:39:48;15.65;;;8.70;;
72635;SDS011;60679;48.888;15.544;2024-02-16T06:42:14;27.77;;;16.27;;
72635;SDS011;60679;48.888;15.544;2024-02-16T06:44:40;19.07;;;9.87;;
72635;SDS011;60679;48.888;15.544;2024-02-16T06:47:05;14.48;;;8.32;;
72635;SDS011;60679;48.888;15.544;2024-02-16T06:49:31;15.85;;;8.68;;
72635;SDS011;60679;48.888;15.544;2024-02-16T06:51:57;11.97;;;5.23;;
72635;SDS011;60679;48.888;15.544;2024-02-16T06:54:23;11.63;;;5.38;;
72635;SDS011;60679;48.888;15.544;2024-02-16T06:56:51;7.90;;;4.18;;
72635;SDS011;60679;48.888;15.544;2024-02-16T06:59:17;11.00;;;4.50;;
72635;SDS011;60679;48.888;15.544;2024-02-16T07:01:45;9.60;;;3.67;;
72635;SDS011;60679;48.888;15.544;2024-02-16T07:04:10;9.93;;;3.47;;
72635;SDS011;60679;48.888;15.544;2024-02-16T07:06:36;8.50;;;4.07;;
72635;SDS011;60679;48.888;15.544;2024-02-16T07:09:02;9.23;;;5.03;;
72635;SDS011;60679;48.888;15.544;2024-02-16T07:11:27;6.17;;;2.97;;
72635;SDS011;60679;48.888;15.544;2024-02-16T07:13:53;5.63;;;2.58;;
72635;SDS011;60679;48.888;15.544;2024-02-16T07:16:19;6.72;;;3.33;;
72635;SDS011;60679;48.888;15.544;2024-02-16T07:18:45;12.88;;;5.03;;
72635;SDS011;60679;48.888;15.544;2024-02-16T07:21:10;12.40;;;5.93;;
72635;SDS011;60679;48.888;15.544;2024-02-16T07:23:36;14.57;;;4.45;;
72635;SDS011;60679;48.888;15.544;2024-02-16T07:26:03;8.97;;;3.60;;
72635;SDS011;60679;48.888;15.544;2024-02-16T07:28:29;8.70;;;3.88;;
72635;SDS011;60679;48.888;15.544;2024-02-16T07:30:54;8.20;;;3.87;;
72635;SDS011;60679;48.888;15.544;2024-02-16T07:33:20;9.88;;;4.00;;
72635;SDS011;60679;48.888;15.544;2024-02-16T07:35:46;5.65;;;2.75;;
72635;SDS011;60679;48.888;15.544;2024-02-16T07:38:12;10.07;;;3.37;;
72635;SDS011;60679;48.888;15.544;2024-02-16T07:40:38;9.02;;;4.03;;
72635;SDS011;60679;48.888;15.544;2024-02-16T07:43:03;5.37;;;3.00;;
72635;SDS011;60679;48.888;15.544;2024-02-16T07:45:29;8.27;;;3.95;;
72635;SDS011;60679;48.888;15.544;2024-02-16T07:47:57;5.32;;;2.92;;
72635;SDS011;60679;48.888;15.544;2024-02-16T07:50:23;4.97;;;2.50;;
72635;SDS011;60679;48.888;15.544;2024-02-16T07:52:49;13.23;;;4.57;;
72635;SDS011;60679;48.888;15.544;2024-02-16T07:55:15;7.13;;;3.67;;
72635;SDS011;60679;48.888;15.544;2024-02-16T07:57:45;5.53;;;2.53;;
72635;SDS011;60679;48.888;15.544;2024-02-16T08:00:12;12.53;;;4.67;;
72635;SDS011;60679;48.888;15.544;2024-02-16T08:02:38;11.05;;;4.68;;
72635;SDS011;60679;48.888;15.544;2024-02-16T08:05:08;27.45;;;4.57;;
72635;SDS011;60679;48.888;15.544;2024-02-16T08:07:35;7.50;;;3.05;;
72635;SDS011;60679;48.888;15.544;2024-02-16T08:10:00;7.80;;;3.17;;
72635;SDS011;60679;48.888;15.544;2024-02-16T08:12:26;8.90;;;3.90;;
72635;SDS011;60679;48.888;15.544;2024-02-16T08:14:53;8.18;;;3.83;;
72635;SDS011;60679;48.888;15.544;2024-02-16T08:17:18;12.68;;;4.38;;
72635;SDS011;60679;48.888;15.544;2024-02-16T08:19:50;7.60;;;3.93;;
72635;SDS011;60679;48.888;15.544;2024-02-16T08:22:17;7.13;;;3.40;;
72635;SDS011;60679;48.888;15.544;2024-02-16T08:24:43;9.52;;;4.45;;
72635;SDS011;60679;48.888;15.544;2024-02-16T08:27:11;9.27;;;3.72;;
72635;SDS011;60679;48.888;15.544;2024-02-16T08:29:38;5.43;;;2.85;;
72635;SDS011;60679;48.888;15.544;2024-02-16T08:32:04;5.88;;;2.58;;
72635;SDS011;60679;48.888;15.544;2024-02-16T08:34:31;18.08;;;5.72;;
72635;SDS011;60679;48.888;15.544;2024-02-16T08:36:56;11.35;;;4.75;;
72635;SDS011;60679;48.888;15.544;2024-02-16T08:39:22;8.03;;;4.53;;
72635;SDS011;60679;48.888;15.544;2024-02-16T08:41:53;8.07;;;3.55;;
72635;SDS011;60679;48.888;15.544;2024-02-16T08:44:19;7.28;;;2.78;;
72635;SDS011;60679;48.888;15.544;2024-02-16T08:46:51;6.63;;;3.40;;
72635;SDS011;60679;48.888;15.544;2024-02-16T08:49:18;5.40;;;3.08;;
72635;SDS011;60679;48.888;15.544;2024-02-16T08:51:44;7.78;;;3.83;;
72635;SDS011;60679;48.888;15.544;2024-02-16T08:54:09;8.93;;;3.80;;
72635;SDS011;60679;48.888;15.544;2024-02-16T08:56:38;7.28;;;3.63;;
72635;SDS011;60679;48.888;15.544;2024-02-16T08:59:07;10.35;;;3.65;;
72635;SDS011;60679;48.888;15.544;2024-02-16T09:01:37;5.88;;;2.28;;
72635;SDS011;60679;48.888;15.544;2024-02-16T09:04:04;6.90;;;3.73;;
72635;SDS011;60679;48.888;15.544;2024-02-16T09:06:30;7.40;;;3.03;;
72635;SDS011;60679;48.888;15.544;2024-02-16T09:08:56;5.05;;;2.30;;
72635;SDS011;60679;48.888;15.544;2024-02-16T09:11:22;5.05;;;2.70;;
72635;SDS011;60679;48.888;15.544;2024-02-16T09:13:48;12.33;;;4.33;;
72635;SDS011;60679;48.888;15.544;2024-02-16T09:16:14;7.72;;;4.18;;
72635;SDS011;60679;48.888;15.544;2024-02-16T09:18:40;10.20;;;3.75;;
72635;SDS011;60679;48.888;15.544;2024-02-16T09:21:06;6.50;;;2.00;;
72635;SDS011;60679;48.888;15.544;2024-02-16T09:23:32;7.18;;;4.05;;
72635;SDS011;60679;48.888;15.544;2024-02-16T09:25:59;10.68;;;3.85;;
72635;SDS011;60679;48.888;15.544;2024-02-16T09:28:25;9.10;;;4.88;;
72635;SDS011;60679;48.888;15.544;2024-02-16T09:30:54;7.73;;;4.03;;
72635;SDS011;60679;48.888;15.544;2024-02-16T09:33:20;6.53;;;2.47;;
72635;SDS011;60679;48.888;15.544;2024-02-16T09:35:47;5.93;;;2.90;;
72635;SDS011;60679;48.888;15.544;2024-02-16T09:38:15;9.35;;;2.38;;
72635;SDS011;60679;48.888;15.544;2024-02-16T09:40:41;9.10;;;3.27;;
72635;SDS011;60679;48.888;15.544;2024-02-16T09:43:07;7.00;;;3.65;;
72635;SDS011;60679;48.888;15.544;2024-02-16T09:45:33;5.90;;;3.67;;
72635;SDS011;60679;48.888;15.544;2024-02-16T09:47:59;6.93;;;2.72;;
72635;SDS011;60679;48.888;15.544;2024-02-16T09:50:24;6.68;;;2.85;;
72635;SDS011;60679;48.888;15.544;2024-02-16T09:52:52;6.95;;;3.78;;
72635;SDS011;60679;48.888;15.544;2024-02-16T09:55:17;7.97;;;3.80;;
72635;SDS011;60679;48.888;15.544;2024-02-16T09:57:43;9.73;;;3.33;;
72635;SDS011;60679;48.888;15.544;2024-02-16T10:00:09;17.20;;;3.70;;
72635;SDS011;60679;48.888;15.544;2024-02-16T10:02:42;6.55;;;3.50;;
72635;SDS011;60679;48.888;15.544;2024-02-16T10:05:16;7.72;;;3.67;;
72635;SDS011;60679;48.888;15.544;2024-02-16T10:07:44;11.60;;;3.80;;
72635;SDS011;60679;48.888;15.544;2024-02-16T10:10:20;6.40;;;3.05;;
72635;SDS011;60679;48.888;15.544;2024-02-16T10:13:03;8.10;;;3.17;;
72635;SDS011;60679;48.888;15.544;2024-02-16T10:15:33;5.15;;;2.85;;
72635;SDS011;60679;48.888;15.544;2024-02-16T10:18:00;13.38;;;4.32;;
72635;SDS011;60679;48.888;15.544;2024-02-16T10:20:27;7.53;;;2.87;;
72635;SDS011;60679;48.888;15.544;2024-02-16T10:23:05;8.32;;;2.63;;
72635;SDS011;60679;48.888;15.544;2024-02-16T10:25:38;6.50;;;3.47;;
72635;SDS011;60679;48.888;15.544;2024-02-16T10:28:06;6.18;;;2.75;;
72635;SDS011;60679;48.888;15.544;2024-02-16T10:30:40;6.32;;;2.80;;
72635;SDS011;60679;48.888;15.544;2024-02-16T10:33:10;6.22;;;2.97;;
72635;SDS011;60679;48.888;15.544;2024-02-16T10:35:37;5.78;;;2.65;;
72635;SDS011;60679;48.888;15.544;2024-02-16T10:38:06;13.45;;;3.33;;
72635;SDS011;60679;48.888;15.544;2024-02-16T10:40:41;10.10;;;4.32;;
72635;SDS011;60679;48.888;15.544;2024-02-16T10:43:08;6.50;;;2.23;;
72635;SDS011;60679;48.888;15.544;2024-02-16T10:45:35;6.43;;;2.60;;
72635;SDS011;60679;48.888;15.544;2024-02-16T10:48:02;7.95;;;2.97;;
72635;SDS011;60679;48.888;15.544;2024-02-16T10:50:29;5.47;;;2.67;;
72635;SDS011;60679;48.888;15.544;2024-02-16T10:52:57;6.55;;;2.78;;
72635;SDS011;60679;48.888;15.544;2024-02-16T10:55:28;5.30;;;3.07;;
72635;SDS011;60679;48.888;15.544;2024-02-16T10:57:55;5.55;;;2.25;;
72635;SDS011;60679;48.888;15.544;2024-02-16T11:00:22;5.13;;;2.05;;
72635;SDS011;60679;48.888;15.544;2024-02-16T11:02:51;4.90;;;2.17;;
72635;SDS011;60679;48.888;15.544;2024-02-16T11:05:18;5.35;;;2.58;;
72635;SDS011;60679;48.888;15.544;2024-02-16T11:07:44;4.53;;;2.03;;
72635;SDS011;60679;48.888;15.544;2024-02-16T11:10:12;6.87;;;3.20;;
72635;SDS011;60679;48.888;15.544;2024-02-16T11:12:38;7.13;;;3.53;;
72635;SDS011;60679;48.888;15.544;2024-02-16T11:15:11;9.80;;;3.20;;
72635;SDS011;60679;48.888;15.544;2024-02-16T11:17:38;5.55;;;2.15;;
72635;SDS011;60679;48.888;15.544;2024-02-16T11:20:06;6.00;;;3.30;;
72635;SDS011;60679;48.888;15.544;2024-02-16T11:22:32;6.53;;;3.50;;
72635;SDS011;60679;48.888;15.544;2024-02-16T11:25:04;7.57;;;3.45;;
72635;SDS011;60679;48.888;15.544;2024-02-16T11:27:31;8.57;;;4.53;;
72635;SDS011;60679;48.888;15.544;2024-02-16T11:29:58;6.63;;;3.95;;
72635;SDS011;60679;48.888;15.544;2024-02-16T11:32:25;7.00;;;3.25;;
72635;SDS011;60679;48.888;15.544;2024-02-16T11:34:50;6.97;;;3.23;;
72635;SDS011;60679;48.888;15.544;2024-02-16T11:37:16;7.17;;;3.40;;
72635;SDS011;60679;48.888;15.544;2024-02-16T11:39:42;6.28;;;3.65;;
72635;SDS011;60679;48.888;15.544;2024-02-16T11:42:10;5.55;;;3.45;;
72635;SDS011;60679;48.888;15.544;2024-02-16T11:44:38;10.97;;;4.20;;
72635;SDS011;60679;48.888;15.544;2024-02-16T11:47:05;8.63;;;4.78;;
72635;SDS011;60679;48.888;15.544;2024-02-16T11:49:35;6.30;;;3.92;;
72635;SDS011;60679;48.888;15.544;2024-02-16T11:52:01;8.80;;;5.33;;
72635;SDS011;60679;48.888;15.544;2024-02-16T11:54:29;8.18;;;4.90;;
72635;SDS011;60679;48.888;15.544;2024-02-16T11:56:56;7.68;;;4.72;;
72635;SDS011;60679;48.888;15.544;2024-02-16T11:59:22;13.25;;;4.35;;
72635;SDS011;60679;48.888;15.544;2024-02-16T12:01:58;6.27;;;4.00;;
72635;SDS011;60679;48.888;15.544;2024-02-16T12:04:25;6.38;;;3.45;;
72635;SDS011;60679;48.888;15.544;2024-02-16T12:06:52;7.65;;;4.18;;
72635;SDS011;60679;48.888;15.544;2024-02-16T12:09:21;7.18;;;4.13;;
72635;SDS011;60679;48.888;15.544;2024-02-16T12:11:47;9.37;;;4.93;;
72635;SDS011;60679;48.888;15.544;2024-02-16T12:14:14;30.92;;;7.13;;
72635;SDS011;60679;48.888;15.544;2024-02-16T12:16:56;8.10;;;4.55;;
72635;SDS011;60679;48.888;15.544;2024-02-16T12:19:23;5.93;;;3.70;;
72635;SDS011;60679;48.888;15.544;2024-02-16T12:21:52;8.00;;;4.00;;
72635;SDS011;60679;48.888;15.544;2024-02-16T12:24:20;6.40;;;4.05;;
72635;SDS011;60679;48.888;15.544;2024-02-16T12:26:46;6.55;;;3.47;;
72635;SDS011;60679;48.888;15.544;2024-02-16T12:29:11;6.00;;;3.70;;
72635;SDS011;60679;48.888;15.544;2024-02-16T12:31:41;7.28;;;3.55;;
72635;SDS011;60679;48.888;15.544;2024-02-16T12:34:10;6.10;;;3.60;;
72635;SDS011;60679;48.888;15.544;2024-02-16T12:36:36;7.15;;;3.63;;
72635;SDS011;60679;48.888;15.544;2024-02-16T12:39:05;5.47;;;2.57;;
72635;SDS011;60679;48.888;15.544;2024-02-16T12:41:31;6.47;;;3.35;;
72635;SDS011;60679;48.888;15.544;2024-02-16T12:43:57;6.85;;;3.42;;
72635;SDS011;60679;48.888;15.544;2024-02-16T12:46:23;6.90;;;3.50;;
72635;SDS011;60679;48.888;15.544;2024-02-16T12:48:49;6.32;;;2.85;;
72635;SDS011;60679;48.888;15.544;2024-02-16T12:51:15;6.18;;;3.47;;
72635;SDS011;60679;48.888;15.544;2024-02-16T12:53:41;6.60;;;3.03;;
72635;SDS011;60679;48.888;15.544;2024-02-16T12:56:07;5.35;;;3.20;;
72635;SDS011;60679;48.888;15.544;2024-02-16T12:58:34;9.05;;;3.50;;
72635;SDS011;60679;48.888;15.544;2024-02-16T13:01:00;5.63;;;2.57;;
72635;SDS011;60679;48.888;15.544;2024-02-16T13:03:26;8.35;;;3.38;;
72635;SDS011;60679;48.888;15.544;2024-02-16T13:05:51;6.53;;;3.03;;
72635;SDS011;60679;48.888;15.544;2024-02-16T13:08:17;6.50;;;2.60;;
72635;SDS011;60679;48.888;15.544;2024-02-16T13:10:42;8.63;;;3.03;;
72635;SDS011;60679;48.888;15.544;2024-02-16T13:13:09;7.15;;;3.30;;
72635;SDS011;60679;48.888;15.544;2024-02-16T13:15:34;6.70;;;2.77;;
72635;SDS011;60679;48.888;15.544;2024-02-16T13:18:00;6.43;;;2.55;;
72635;SDS011;60679;48.888;15.544;2024-02-16T13:20:25;8.03;;;2.90;;
72635;SDS011;60679;48.888;15.544;2024-02-16T13:22:51;16.00;;;3.60;;
72635;SDS011;60679;48.888;15.544;2024-02-16T13:25:17;6.35;;;2.85;;
72635;SDS011;60679;48.888;15.544;2024-02-16T13:27:44;7.90;;;3.17;;
72635;SDS011;60679;48.888;15.544;2024-02-16T13:30:10;21.90;;;3.20;;
72635;SDS011;60679;48.888;15.544;2024-02-16T13:32:36;6.72;;;2.70;;
72635;SDS011;60679;48.888;15.544;2024-02-16T13:35:05;6.43;;;2.50;;
72635;SDS011;60679;48.888;15.544;2024-02-16T13:37:34;5.15;;;2.30;;
72635;SDS011;60679;48.888;15.544;2024-02-16T13:39:59;5.95;;;2.67;;
72635;SDS011;60679;48.888;15.544;2024-02-16T13:42:26;5.53;;;2.23;;
72635;SDS011;60679;48.888;15.544;2024-02-16T13:44:53;5.10;;;2.25;;
72635;SDS011;60679;48.888;15.544;2024-02-16T13:47:19;6.28;;;2.80;;
72635;SDS011;60679;48.888;15.544;2024-02-16T13:49:44;4.27;;;1.77;;
72635;SDS011;60679;48.888;15.544;2024-02-16T13:52:09;6.13;;;2.83;;
72635;SDS011;60679;48.888;15.544;2024-02-16T13:54:35;7.00;;;2.88;;
72635;SDS011;60679;48.888;15.544;2024-02-16T13:57:01;6.80;;;2.13;;
72635;SDS011;60679;48.888;15.544;2024-02-16T13:59:27;6.47;;;2.22;;
72635;SDS011;60679;48.888;15.544;2024-02-16T14:01:53;5.83;;;2.80;;
72635;SDS011;60679;48.888;15.544;2024-02-16T14:04:19;6.10;;;2.53;;
72635;SDS011;60679;48.888;15.544;2024-02-16T14:06:47;6.88;;;2.35;;
72635;SDS011;60679;48.888;15.544;2024-02-16T14:09:15;7.27;;;3.17;;
72635;SDS011;60679;48.888;15.544;2024-02-16T14:11:46;5.88;;;2.20;;
72635;SDS011;60679;48.888;15.544;2024-02-16T14:14:12;5.60;;;2.58;;
72635;SDS011;60679;48.888;15.544;2024-02-16T14:16:39;5.43;;;2.10;;
72635;SDS011;60679;48.888;15.544;2024-02-16T14:19:05;5.00;;;2.05;;
72635;SDS011;60679;48.888;15.544;2024-02-16T14:21:31;4.72;;;1.60;;
72635;SDS011;60679;48.888;15.544;2024-02-16T14:23:57;5.25;;;1.60;;
72635;SDS011;60679;48.888;15.544;2024-02-16T14:26:23;9.13;;;1.87;;